Time;durP1;ratioP1;P1;durP2;ratioP2;P2;SDS_P1;SDS_P2;PMS_P1;PMS_P2;Temp;Humidity;BMP_temperature;BMP_pressure;BME280_temperature;BME280_humidity;BME280_pressure;Samples;Min_cycle;Max_cycle;Signal;HPM_P1;HPM_P2
2022/03/27 00:01:19;;;;;;;28.85;13.93;;;;;;;3.37;57.80;100973.66;5149579;27;20030;-33
2022/03/27 00:03:45;;;;;;;29.25;15.73;;;;;;;3.73;57.93;101011.44;5149614;27;20026;-29
2022/03/27 00:06:10;;;;;;;26.65;15.65;;;;;;;4.01;56.62;101014.00;5150410;27;20030;-29
2022/03/27 00:08:36;;;;;;;28.58;16.50;;;;;;;4.20;55.81;101007.72;5149666;27;20037;-28
2022/03/27 00:13:46;;;;;;;28.80;15.85;;;;;;;4.02;56.68;100971.63;5149661;27;20410;-29
2022/03/27 00:16:11;;;;;;;30.83;17.27;;;;;;;4.13;56.46;100988.19;5149860;27;20478;-31
2022/03/27 00:18:38;;;;;;;30.55;17.65;;;;;;;4.45;55.70;100994.66;5149582;27;20030;-28
2022/03/27 00:21:08;;;;;;;32.83;18.42;;;;;;;4.92;55.00;100997.69;5149513;27;20459;-29
2022/03/27 00:23:34;;;;;;;32.83;18.73;;;;;;;4.77;53.87;101000.13;5130930;27;20038;-29
2022/03/27 00:26:00;;;;;;;36.83;18.67;;;;;;;4.56;55.27;100995.22;5130864;27;20030;-29
2022/03/27 00:28:26;;;;;;;35.70;19.13;;;;;;;4.60;54.87;100990.47;5130684;27;20027;-30
2022/03/27 00:30:52;;;;;;;30.30;18.73;;;;;;;4.08;57.20;100982.53;5149598;27;20469;-35
2022/03/27 00:33:18;;;;;;;33.05;17.92;;;;;;;3.88;56.67;100976.59;5127293;27;20043;-30
2022/03/27 00:35:44;;;;;;;29.88;16.33;;;;;;;3.37;58.11;100984.22;5128691;27;20019;-28
2022/03/27 00:38:10;;;;;;;26.65;16.52;;;;;;;3.68;58.00;100991.75;5128778;27;20118;-31
2022/03/27 00:40:36;;;;;;;28.77;17.75;;;;;;;3.79;58.12;100994.19;5127015;27;20426;-30
2022/03/27 00:43:02;;;;;;;29.60;16.90;;;;;;;3.90;57.01;100980.75;5128255;28;20027;-29
2022/03/27 00:45:27;;;;;;;34.03;18.70;;;;;;;3.92;57.30;100986.69;5127237;28;20018;-32
2022/03/27 00:47:54;;;;;;;42.72;22.67;;;;;;;4.07;56.66;100970.34;5128666;27;20077;-31
2022/03/27 00:50:20;;;;;;;50.38;25.40;;;;;;;3.98;56.42;100972.06;5128558;27;20110;-29
2022/03/27 00:52:46;;;;;;;49.50;25.92;;;;;;;3.82;57.43;100989.44;5127112;27;20034;-28
2022/03/27 00:55:11;;;;;;;35.08;20.52;;;;;;;3.74;57.97;100977.97;5128437;27;20027;-31
2022/03/27 00:57:37;;;;;;;35.75;19.13;;;;;;;4.08;56.41;100956.97;5128497;27;20024;-28
2022/03/27 01:00:09;;;;;;;40.33;21.83;;;;;;;4.20;56.62;100978.66;5128810;28;20027;-30
2022/03/27 01:02:36;;;;;;;47.47;25.10;;;;;;;4.34;56.61;100980.72;5130102;27;20023;-29
2022/03/27 01:05:11;;;;;;;46.83;24.80;;;;;;;4.34;55.70;100978.09;5132693;27;20068;-32
2022/03/27 01:07:40;;;;;;;40.70;22.83;;;;;;;4.21;56.80;100967.97;5132828;27;20446;-28
2022/03/27 01:10:05;;;;;;;;;;;;;;;4.10;57.12;100978.75;5133068;27;20030;-29
2022/03/27 01:12:39;;;;;;;69.65;35.05;;;;;;;3.33;58.74;100948.56;5132719;27;19911;-30
2022/03/27 01:15:21;;;;;;;54.03;28.65;;;;;;;3.14;59.64;100974.09;5131011;27;20031;-33
2022/03/27 01:17:47;;;;;;;45.47;23.70;;;;;;;2.70;61.12;100952.03;5131123;27;20030;-30
2022/03/27 01:20:21;;;;;;;54.38;27.35;;;;;;;3.27;59.81;100963.22;5132313;27;20035;-32
2022/03/27 01:22:47;;;;;;;40.72;22.92;;;;;;;3.15;60.14;100952.03;5131122;27;20023;-40
2022/03/27 01:25:12;;;;;;;44.88;24.40;;;;;;;3.25;60.42;100917.72;5130976;27;20419;-28
2022/03/27 01:27:38;;;;;;;58.42;29.33;;;;;;;3.70;59.26;100951.09;5132125;27;20358;-28
2022/03/27 01:30:03;;;;;;;48.22;26.35;;;;;;;3.93;58.81;100958.50;5132303;27;20091;-32
2022/03/27 01:32:29;;;;;;;41.83;22.27;;;;;;;3.99;59.06;100964.00;5136343;27;20042;-31
2022/03/27 01:34:54;;;;;;;40.40;22.60;;;;;;;3.61;59.91;100958.06;5133838;27;20114;-29
2022/03/27 01:37:20;;;;;;;44.08;24.70;;;;;;;3.16;60.96;100940.50;5153057;27;20545;-30
2022/03/27 01:39:45;;;;;;;35.58;19.65;;;;;;;2.54;62.36;100924.50;5152699;27;20428;-29
2022/03/27 01:42:12;;;;;;;26.92;16.48;;;;;;;2.18;63.71;100944.56;5153055;27;20027;-31
2022/03/27 01:44:37;;;;;;;30.05;17.45;;;;;;;1.91;64.64;100930.34;5133912;27;20037;-29
2022/03/27 01:47:03;;;;;;;27.20;16.08;;;;;;;2.22;63.75;100935.41;5152405;27;20019;-36
2022/03/27 01:49:29;;;;;;;28.92;16.63;;;;;;;2.67;62.53;100928.59;5152146;27;20035;-28
2022/03/27 01:51:54;;;;;;;32.78;18.15;;;;;;;3.19;60.93;100940.22;5152704;27;20023;-29
2022/03/27 01:54:22;;;;;;;39.38;20.48;;;;;;;3.36;59.70;100948.28;5133732;27;20083;-28
2022/03/27 01:56:48;;;;;;;33.25;19.55;;;;;;;3.39;58.97;100963.81;5133416;27;20026;-30
2022/03/27 01:59:14;;;;;;;31.15;17.30;;;;;;;3.52;57.69;100964.28;5152099;27;20573;-28
2022/03/27 02:01:39;;;;;;;32.22;18.13;;;;;;;3.52;57.96;100966.91;5133338;27;20034;-29
2022/03/27 02:04:06;;;;;;;27.60;16.52;;;;;;;3.71;56.91;100963.28;5151907;27;20030;-28
2022/03/27 02:06:39;;;;;;;27.65;16.85;;;;;;;3.72;56.94;100966.72;5133597;27;20069;-28
2022/03/27 02:09:05;;;;;;;31.45;17.05;;;;;;;3.48;57.17;100959.47;5152022;27;20087;-28
2022/03/27 02:11:31;;;;;;;30.25;17.00;;;;;;;3.40;57.35;100942.56;5133368;27;20700;-29
2022/03/27 02:13:57;;;;;;;28.27;17.23;;;;;;;3.53;57.56;100941.34;5132641;27;20040;-28
2022/03/27 02:16:22;;;;;;;28.60;18.63;;;;;;;3.51;56.78;100944.13;5133190;27;20034;-28
2022/03/27 02:18:47;;;;;;;33.83;20.95;;;;;;;3.88;56.65;100972.16;5151402;27;20023;-37
2022/03/27 02:21:13;;;;;;;34.15;20.02;;;;;;;3.99;55.80;100947.34;5133202;27;20033;-35
2022/03/27 02:23:38;;;;;;;32.67;18.88;;;;;;;4.09;55.38;100973.66;5152318;27;20490;-29
2022/03/27 02:26:05;;;;;;;30.10;19.50;;;;;;;3.95;55.79;100970.56;5151810;27;20434;-35
2022/03/27 02:28:31;;;;;;;31.67;18.23;;;;;;;3.88;56.53;100972.16;5132961;27;20030;-29
2022/03/27 02:30:57;;;;;;;32.45;21.58;;;;;;;4.01;56.17;100956.75;5151904;27;20026;-28
2022/03/27 02:33:24;;;;;;;31.77;19.58;;;;;;;3.81;56.01;100950.00;5151448;27;20085;-28
2022/03/27 02:35:49;;;;;;;29.15;17.17;;;;;;;3.94;56.18;100971.56;5133038;27;20034;-29
2022/03/27 02:38:15;;;;;;;27.13;16.70;;;;;;;3.87;56.52;100961.75;5151560;27;20106;-29
2022/03/27 02:40:43;;;;;;;26.30;16.23;;;;;;;3.76;57.22;100968.09;5151440;27;20054;-30
2022/03/27 02:43:12;;;;;;;;;;;;;;;3.94;57.35;100968.94;5133128;27;20486;-28
2022/03/27 02:45:38;;;;;;;29.05;15.52;;;;;;;4.02;56.76;100969.00;5151370;27;19907;-28
2022/03/27 02:48:04;;;;;;;32.17;17.83;;;;;;;3.68;57.71;100970.66;5132589;27;20035;-29
2022/03/27 02:50:30;;;;;;;40.95;20.00;;;;;;;3.16;58.74;100972.13;5132832;27;20087;-30
2022/03/27 02:52:57;;;;;;;37.10;20.55;;;;;;;2.85;60.06;100976.88;5132504;27;20501;-29
2022/03/27 02:55:24;;;;;;;38.13;19.45;;;;;;;2.46;60.66;100968.31;5132600;27;20033;-28
2022/03/27 02:57:50;;;;;;;32.42;18.83;;;;;;;2.00;62.03;100978.66;5132631;27;20030;-30
2022/03/27 03:00:17;;;;;;;34.17;19.20;;;;;;;1.99;60.98;100971.75;5150807;27;20023;-32
2022/03/27 03:02:43;;;;;;;50.97;24.77;;;;;;;2.13;60.73;100957.34;5132414;27;20027;-28
2022/03/27 03:05:09;;;;;;;52.78;25.60;;;;;;;2.77;59.73;100988.16;5150781;27;20065;-29
2022/03/27 03:07:38;;;;;;;41.65;21.23;;;;;;;2.62;60.24;100994.88;5132554;27;20051;-28
2022/03/27 03:10:04;;;;;;;34.80;19.48;;;;;;;2.61;60.27;100988.75;5132104;27;20046;-29
2022/03/27 03:12:30;;;;;;;39.90;20.52;;;;;;;2.57;59.63;100976.03;5132168;27;20030;-29
2022/03/27 03:14:56;;;;;;;40.00;21.15;;;;;;;2.40;60.07;100970.53;5150302;27;20029;-29
2022/03/27 03:17:28;;;;;;;42.10;20.33;;;;;;;2.46;61.47;100979.69;5132170;27;20026;-30
2022/03/27 03:19:53;;;;;;;39.78;19.55;;;;;;;2.67;61.59;100970.72;5131834;27;20409;-31
2022/03/27 03:22:19;;;;;;;27.83;16.77;;;;;;;2.71;61.43;100978.19;5131747;27;20031;-28
2022/03/27 03:24:44;;;;;;;38.55;19.60;;;;;;;2.83;61.73;100997.28;5149726;27;20079;-32
2022/03/27 03:27:10;;;;;;;40.53;19.92;;;;;;;2.82;61.42;100995.63;5131337;27;20030;-31
2022/03/27 03:29:35;;;;;;;38.30;20.60;;;;;;;2.67;62.31;100987.34;5150253;27;20029;-28
2022/03/27 03:32:01;;;;;;;40.47;20.92;;;;;;;2.75;62.15;100998.00;5150186;27;20418;-29
2022/03/27 03:34:27;;;;;;;39.72;20.85;;;;;;;2.73;61.60;100997.31;5131722;27;20031;-30
2022/03/27 03:36:52;;;;;;;44.95;20.55;;;;;;;2.64;61.31;100971.88;5150254;27;20057;-31
2022/03/27 03:39:18;;;;;;;36.13;18.80;;;;;;;2.68;61.34;100993.47;5150014;27;20105;-32
2022/03/27 03:41:43;;;;;;;32.13;15.98;;;;;;;2.76;61.27;101002.31;5150197;27;20105;-31
2022/03/27 03:44:09;;;;;;;27.40;16.33;;;;;;;2.86;61.03;100993.53;5149876;27;20058;-29
2022/03/27 03:46:34;;;;;;;32.33;18.15;;;;;;;2.95;61.00;100995.28;5150451;27;20027;-32
2022/03/27 03:49:00;;;;;;;39.65;18.80;;;;;;;2.98;61.07;100990.56;5150052;27;20026;-28
2022/03/27 03:51:25;;;;;;;31.70;18.05;;;;;;;3.06;60.43;100992.44;5150247;27;20118;-28
2022/03/27 03:53:51;;;;;;;29.90;16.77;;;;;;;2.70;60.79;101002.88;5149958;27;20030;-33
2022/03/27 03:56:16;;;;;;;28.45;15.98;;;;;;;2.65;60.66;100984.03;5149954;27;20079;-33
2022/03/27 03:58:42;;;;;;;31.30;16.17;;;;;;;2.21;62.66;101002.19;5149739;27;20019;-28
2022/03/27 04:01:07;;;;;;;31.88;18.80;;;;;;;1.86;63.89;101008.88;5149715;27;20470;-29
2022/03/27 04:03:33;;;;;;;40.70;22.35;;;;;;;2.01;63.57;101002.19;5150077;27;20516;-28
2022/03/27 04:05:59;;;;;;;37.47;20.08;;;;;;;2.39;62.36;100999.63;5149713;27;20066;-29
2022/03/27 04:08:24;;;;;;;38.50;20.23;;;;;;;2.37;62.26;101001.59;5131065;27;20158;-29
2022/03/27 04:10:50;;;;;;;45.75;21.95;;;;;;;2.50;62.29;101001.28;5130670;27;20062;-30
2022/03/27 04:13:15;;;;;;;44.67;23.13;;;;;;;2.47;62.59;101012.09;5149626;27;20029;-30
2022/03/27 04:15:41;;;;;;;33.88;18.17;;;;;;;2.09;62.53;101005.94;5149677;27;20027;-31
2022/03/27 04:18:07;;;;;;;37.08;18.60;;;;;;;2.15;62.74;101010.66;5149671;27;20023;-29
2022/03/27 04:20:34;;;;;;;44.30;26.95;;;;;;;2.12;63.32;101021.44;5149678;27;20490;-28
2022/03/27 04:23:01;;;;;;;31.88;18.38;;;;;;;1.81;64.21;101030.31;5130632;27;20025;-28
2022/03/27 04:25:27;;;;;;;35.15;18.15;;;;;;;1.85;63.68;100995.84;5130824;27;20030;-28
2022/03/27 04:27:53;;;;;;;36.15;19.05;;;;;;;1.60;64.45;101009.41;5149209;27;20063;-28
2022/03/27 04:30:18;;;;;;;42.83;20.48;;;;;;;1.56;65.06;101023.78;5130914;27;20038;-28
2022/03/27 04:32:44;;;;;;;49.33;22.70;;;;;;;1.81;63.75;101005.81;5149153;27;20062;-31
2022/03/27 04:35:10;;;;;;;58.65;26.42;;;;;;;2.36;62.32;101037.63;5149254;27;20054;-28
2022/03/27 04:37:42;;;;;;;64.65;28.90;;;;;;;2.39;62.40;101047.88;5149011;27;20066;-28
2022/03/27 04:40:10;;;;;;;70.25;35.22;;;;;;;2.69;60.86;101027.56;5130593;27;20027;-28
2022/03/27 04:42:35;;;;;;;91.93;47.28;;;;;;;2.86;60.56;101033.03;5130322;27;20030;-29
2022/03/27 04:45:01;;;;;;;100.30;51.38;;;;;;;2.80;61.20;101051.09;5149441;27;20042;-29
2022/03/27 04:47:26;;;;;;;72.38;38.88;;;;;;;2.47;62.94;101046.31;5149679;27;20034;-32
2022/03/27 04:49:52;;;;;;;60.28;29.77;;;;;;;2.20;63.36;101046.06;5149383;27;20180;-37
2022/03/27 04:52:17;;;;;;;28.70;17.98;;;;;;;1.98;63.44;101052.47;5149426;27;20470;-29
2022/03/27 04:54:43;;;;;;;36.35;19.92;;;;;;;2.03;63.13;101046.81;5149328;27;20675;-30
2022/03/27 04:57:08;;;;;;;49.13;25.08;;;;;;;2.05;62.52;101039.59;5130210;27;20038;-28
2022/03/27 04:59:34;;;;;;;58.90;29.27;;;;;;;2.36;62.12;101042.06;5149225;27;20030;-29
2022/03/27 05:02:01;;;;;;;71.57;43.53;;;;;;;2.28;62.61;101044.56;5149300;27;20091;-28
2022/03/27 05:04:27;;;;;;;142.85;63.90;;;;;;;2.53;62.13;101048.38;5130487;27;20030;-28
2022/03/27 05:06:53;;;;;;;81.85;41.25;;;;;;;2.91;61.83;101065.88;5147980;27;20034;-29
2022/03/27 05:09:19;;;;;;;63.13;36.78;;;;;;;3.24;60.86;101068.13;5130295;27;20121;-29
2022/03/27 05:11:45;;;;;;;67.88;38.53;;;;;;;3.48;60.42;101059.66;5148812;27;20773;-30
2022/03/27 05:14:11;;;;;;;63.00;37.10;;;;;;;3.39;60.84;101040.25;5149371;27;20106;-29
2022/03/27 05:16:37;;;;;;;72.72;42.30;;;;;;;4.02;58.35;101060.50;5113330;27;20150;-31
2022/03/27 05:19:04;;;;;;;67.65;38.30;;;;;;;4.27;58.33;101072.13;5148758;27;20079;-29
2022/03/27 05:21:30;;;;;;;64.65;35.83;;;;;;;3.93;59.36;101054.34;5148976;27;20031;-28
2022/03/27 05:23:56;;;;;;;58.22;35.03;;;;;;;4.28;57.44;101068.50;5148855;27;20031;-29
2022/03/27 05:26:21;;;;;;;55.00;30.38;;;;;;;3.88;59.68;101061.88;5148589;27;20503;-30
2022/03/27 05:28:47;;;;;;;72.63;31.30;;;;;;;4.29;57.95;101075.44;5148807;27;20075;-36
2022/03/27 05:31:12;;;;;;;50.70;29.73;;;;;;;4.31;58.52;101062.91;5148903;27;20054;-28
2022/03/27 05:33:39;;;;;;;57.38;31.65;;;;;;;4.79;57.25;101068.69;5148480;27;20049;-29
2022/03/27 05:36:05;;;;;;;62.22;33.63;;;;;;;4.66;57.99;101058.53;5129968;27;20117;-31
2022/03/27 05:38:31;;;;;;;63.88;33.33;;;;;;;4.81;57.79;101041.09;5148282;27;20409;-31
2022/03/27 05:40:56;;;;;;;51.88;29.50;;;;;;;4.73;57.56;101038.41;5129398;27;20023;-30
2022/03/27 05:43:22;;;;;;;47.00;29.92;;;;;;;4.96;57.59;101062.47;5148593;27;20027;-30
2022/03/27 05:45:47;;;;;;;45.20;29.25;;;;;;;5.06;57.31;101069.47;5148791;27;20027;-29
2022/03/27 05:48:14;;;;;;;38.75;23.45;;;;;;;5.21;58.08;101073.16;5130520;27;20129;-28
2022/03/27 05:50:39;;;;;;;45.22;25.55;;;;;;;5.61;55.62;101069.84;5152531;27;20033;-33
2022/03/27 05:53:05;;;;;;;44.15;26.88;;;;;;;5.70;56.27;101080.44;5152081;27;20027;-30
2022/03/27 05:55:30;;;;;;;45.58;26.10;;;;;;;6.04;55.42;101067.97;5152016;27;20048;-31
2022/03/27 05:57:56;;;;;;;46.40;25.10;;;;;;;5.88;55.80;101061.78;5152404;27;20022;-32
2022/03/27 06:00:21;;;;;;;44.83;26.23;;;;;;;6.34;53.15;101083.38;5151976;27;20054;-29
2022/03/27 06:02:50;;;;;;;46.50;24.40;;;;;;;6.77;53.11;101073.38;5133278;27;20479;-37
2022/03/27 06:05:18;;;;;;;46.55;25.83;;;;;;;6.89;52.10;101085.28;5133211;27;20092;-30
2022/03/27 06:07:47;;;;;;;46.75;25.73;;;;;;;7.42;52.04;101091.75;5151793;27;20769;-30
2022/03/27 06:10:14;;;;;;;34.47;21.10;;;;;;;7.56;52.57;101076.91;5133297;27;20054;-28
2022/03/27 06:12:40;;;;;;;26.55;14.23;;;;;;;7.71;51.34;101086.78;5133154;27;20135;-29
2022/03/27 06:15:07;;;;;;;24.63;13.93;;;;;;;7.97;51.65;101097.91;5133054;27;20038;-30
2022/03/27 06:17:41;;;;;;;22.13;12.15;;;;;;;8.09;50.24;101074.41;5133066;27;20486;-28
2022/03/27 06:20:07;;;;;;;21.92;12.35;;;;;;;8.42;50.80;101101.59;5133091;27;20035;-31
2022/03/27 06:22:32;;;;;;;23.27;11.45;;;;;;;8.38;50.93;101079.00;5132675;27;20034;-29
2022/03/27 06:24:58;;;;;;;22.25;12.30;;;;;;;8.79;49.71;101097.25;5151810;27;20083;-29
2022/03/27 06:27:23;;;;;;;20.30;10.77;;;;;;;8.91;50.38;101107.44;5151684;27;20593;-36
2022/03/27 06:29:49;;;;;;;18.52;9.77;;;;;;;8.94;48.10;101093.78;5151792;27;20033;-32
2022/03/27 06:32:15;;;;;;;19.08;10.20;;;;;;;9.14;48.40;101110.03;5132579;27;20034;-31
2022/03/27 06:34:40;;;;;;;19.55;10.90;;;;;;;9.23;48.39;101087.63;5132926;27;20029;-31
2022/03/27 06:37:05;;;;;;;22.95;10.68;;;;;;;9.69;46.97;101113.19;5150987;27;20034;-29
2022/03/27 06:39:31;;;;;;;23.55;10.77;;;;;;;9.62;47.11;101081.97;5151618;27;20431;-31
2022/03/27 06:41:56;;;;;;;19.05;11.90;;;;;;;9.80;47.42;101086.84;5132830;27;20050;-29
2022/03/27 06:44:22;;;;;;;36.88;18.48;;;;;;;10.31;45.94;101085.94;5147860;27;20019;-29
2022/03/27 06:46:47;;;;;;;15.73;9.50;;;;;;;10.35;45.51;101113.88;5140437;27;20461;-39
2022/03/27 06:49:13;;;;;;;19.27;10.93;;;;;;;10.29;46.48;101079.97;5139968;27;20019;-28
2022/03/27 06:51:38;;;;;;;20.70;11.13;;;;;;;10.64;47.09;101106.72;5138283;27;20050;-30
2022/03/27 06:54:04;;;;;;;20.05;10.68;;;;;;;10.81;45.87;101094.75;5140607;27;20049;-31
2022/03/27 06:56:30;;;;;;;23.83;12.07;;;;;;;10.85;46.19;101103.22;5120974;27;20035;-29
2022/03/27 06:58:56;;;;;;;20.77;10.90;;;;;;;10.84;48.09;101091.69;5119552;27;20027;-36
2022/03/27 07:04:05;;;;;;;18.90;10.35;;;;;;;11.03;45.86;101084.00;5130283;27;20042;-31
2022/03/27 07:06:31;;;;;;;18.02;11.02;;;;;;;11.13;45.58;101113.81;5130339;27;20478;-32
2022/03/27 07:08:56;;;;;;;20.50;11.25;;;;;;;11.25;45.71;101093.56;5130141;27;20061;-30
2022/03/27 07:11:22;;;;;;;21.20;12.13;;;;;;;11.64;45.77;101108.09;5129982;27;20035;-30
2022/03/27 07:13:47;;;;;;;22.90;10.88;;;;;;;12.12;44.16;101104.56;5130004;27;20038;-30
2022/03/27 07:16:14;;;;;;;21.42;12.23;;;;;;;12.31;44.63;101102.94;5111153;27;20031;-29
2022/03/27 07:18:39;;;;;;;18.27;9.88;;;;;;;12.27;44.49;101091.00;5129713;27;20023;-34
2022/03/27 07:21:04;;;;;;;17.70;10.88;;;;;;;12.42;45.76;101082.75;5129828;27;20107;-31
2022/03/27 07:23:30;;;;;;;19.52;10.18;;;;;;;12.79;43.00;101110.75;5111467;27;20062;-29
2022/03/27 07:25:56;;;;;;;19.48;9.25;;;;;;;12.83;42.51;101112.00;5130002;27;20093;-32
2022/03/27 07:28:22;;;;;;;23.48;14.43;;;;;;;13.18;42.16;101106.34;5129771;27;20099;-29
2022/03/27 07:30:48;;;;;;;20.00;11.38;;;;;;;13.69;41.62;101109.25;5129485;27;20715;-31
2022/03/27 07:33:15;;;;;;;17.83;9.95;;;;;;;13.63;41.99;101105.59;5107362;28;20044;-31
2022/03/27 07:35:41;;;;;;;18.38;11.32;;;;;;;13.80;41.06;101087.16;5109251;28;20043;-30
2022/03/27 07:38:07;;;;;;;18.42;11.63;;;;;;;13.86;42.75;101100.50;5124731;27;20035;-28
2022/03/27 07:40:33;;;;;;;19.85;11.55;;;;;;;14.13;43.62;101104.91;5107402;28;20024;-29
2022/03/27 07:42:59;;;;;;;20.58;12.45;;;;;;;14.31;42.09;101091.56;5108661;28;20046;-33
2022/03/27 07:45:27;;;;;;;16.63;10.95;;;;;;;14.09;43.33;101071.50;5107565;28;20100;-29
2022/03/27 07:47:54;;;;;;;25.50;10.38;;;;;;;14.33;41.15;101094.84;5106997;28;20028;-29
2022/03/27 07:50:22;;;;;;;25.38;14.00;;;;;;;14.53;40.08;101075.88;5108930;28;20030;-29
2022/03/27 07:52:47;;;;;;;20.55;11.45;;;;;;;14.60;40.81;101089.28;5107295;28;20030;-33
2022/03/27 07:55:18;;;;;;;17.40;10.55;;;;;;;14.99;41.49;101076.50;5108879;28;20023;-29
2022/03/27 07:57:43;;;;;;;21.25;10.70;;;;;;;15.06;39.72;101077.25;5108951;28;20040;-29
2022/03/27 08:00:11;;;;;;;17.35;10.45;;;;;;;15.52;39.60;101065.09;5124241;27;20055;-33
2022/03/27 08:02:37;;;;;;;18.30;9.82;;;;;;;15.86;38.03;101073.59;5107153;28;20392;-32
2022/03/27 08:05:04;;;;;;;23.30;10.55;;;;;;;16.38;36.21;101078.34;5107049;28;20512;-33
2022/03/27 08:07:30;;;;;;;16.02;7.53;;;;;;;16.67;32.43;101049.69;5107317;28;20495;-29
2022/03/27 08:09:56;;;;;;;19.52;9.10;;;;;;;17.16;32.54;101058.31;5108362;28;20066;-29
2022/03/27 08:12:21;;;;;;;20.38;8.23;;;;;;;17.32;32.52;101066.69;5107815;28;20089;-31
2022/03/27 08:14:48;;;;;;;22.10;7.82;;;;;;;17.48;30.41;101066.75;5107973;28;20027;-36
2022/03/27 08:17:16;;;;;;;17.10;6.90;;;;;;;17.62;30.23;101056.50;5108219;28;20023;-30
2022/03/27 08:19:43;;;;;;;25.75;9.95;;;;;;;17.64;31.93;101046.28;5108256;28;20035;-40
2022/03/27 08:22:09;;;;;;;13.43;5.72;;;;;;;17.54;28.87;101040.72;5106940;28;20058;-29
2022/03/27 08:24:35;;;;;;;14.77;6.38;;;;;;;17.96;28.77;101051.22;5106945;28;20027;-30
2022/03/27 08:27:02;;;;;;;13.70;5.95;;;;;;;17.81;28.57;101048.19;5106249;28;20046;-29
2022/03/27 08:29:31;;;;;;;16.95;7.13;;;;;;;17.80;26.97;101038.50;5108121;28;20106;-30
2022/03/27 08:32:00;;;;;;;15.07;8.52;;;;;;;17.99;27.95;101039.91;5105518;28;20088;-32
2022/03/27 08:34:28;;;;;;;11.50;6.28;;;;;;;18.22;28.23;101038.13;5108198;28;20075;-28
2022/03/27 08:36:55;;;;;;;17.73;10.45;;;;;;;18.64;28.86;101046.59;5106295;28;20112;-29
2022/03/27 08:39:21;;;;;;;11.10;5.82;;;;;;;18.67;26.72;101034.47;5108021;28;20578;-30
2022/03/27 08:41:49;;;;;;;17.65;9.73;;;;;;;18.41;26.02;101038.69;5122660;27;20119;-30
2022/03/27 08:44:18;;;;;;;;;;;;;;;18.47;26.97;101035.81;5106970;28;20081;-30
2022/03/27 08:46:46;;;;;;;19.08;9.18;;;;;;;18.46;27.12;101033.34;5106529;28;19908;-29
2022/03/27 08:49:32;;;;;;;19.20;8.10;;;;;;;18.60;25.92;101040.03;5106523;28;20035;-32
2022/03/27 08:52:01;;;;;;;16.50;7.78;;;;;;;18.62;25.60;101037.09;5106681;28;20038;-30
2022/03/27 08:54:34;;;;;;;12.43;6.22;;;;;;;18.87;25.52;101039.34;5107882;28;20502;-29
2022/03/27 08:57:20;;;;;;;15.63;7.97;;;;;;;19.22;26.56;101025.44;5108057;28;20034;-29
2022/03/27 08:59:47;;;;;;;12.50;6.65;;;;;;;19.31;24.44;101035.81;5106071;28;20096;-29
2022/03/27 09:02:14;;;;;;;19.07;7.37;;;;;;;19.30;25.96;101031.50;5107782;28;20785;-31
2022/03/27 09:04:41;;;;;;;13.13;6.72;;;;;;;19.41;24.54;101039.47;5106446;28;20054;-34
2022/03/27 09:07:06;;;;;;;15.23;6.72;;;;;;;19.27;23.82;101028.22;5106141;28;20043;-32
2022/03/27 09:09:34;;;;;;;19.23;7.82;;;;;;;19.52;24.56;101040.41;5108029;28;20028;-29
2022/03/27 09:12:03;;;;;;;13.30;6.15;;;;;;;19.54;23.92;101037.44;5123476;28;20642;-30
2022/03/27 09:14:31;;;;;;;12.77;6.22;;;;;;;19.64;24.62;101032.94;5106397;28;20043;-31
2022/03/27 09:17:01;;;;;;;14.13;6.80;;;;;;;19.62;24.51;101031.56;5106231;28;20031;-32
2022/03/27 09:19:39;;;;;;;12.02;6.35;;;;;;;19.63;25.57;100998.00;5105951;28;20039;-31
2022/03/27 09:22:21;;;;;;;12.63;6.88;;;;;;;20.26;26.14;101022.66;5106303;28;20512;-33
2022/03/27 09:24:58;;;;;;;13.13;6.82;;;;;;;20.67;23.58;101028.34;5110563;28;20031;-38
2022/03/27 09:27:37;;;;;;;12.43;6.67;;;;;;;20.81;23.78;101023.28;5111774;28;20042;-30
2022/03/27 09:30:10;;;;;;;12.88;6.68;;;;;;;20.92;22.67;101016.00;5111548;28;20499;-30
2022/03/27 09:32:41;;;;;;;11.02;6.40;;;;;;;20.96;21.70;101025.25;5116599;27;20566;-32
2022/03/27 09:35:14;;;;;;;11.68;6.05;;;;;;;21.17;21.70;101023.44;5113343;27;20027;-31
2022/03/27 09:37:49;;;;;;;14.80;6.53;;;;;;;21.04;20.05;101008.47;5113347;27;20042;-30
2022/03/27 09:40:16;;;;;;;11.32;6.57;;;;;;;20.94;21.17;101019.28;5131707;27;20023;-32
2022/03/27 09:42:43;;;;;;;16.05;7.05;;;;;;;20.96;21.93;101017.09;5113403;27;20744;-30
2022/03/27 09:45:23;;;;;;;16.48;7.97;;;;;;;20.50;20.89;101008.72;5113333;27;20031;-31
2022/03/27 09:47:50;;;;;;;12.40;7.82;;;;;;;21.02;22.85;101003.31;5131863;27;20061;-29
2022/03/27 09:50:39;;;;;;;15.93;8.20;;;;;;;20.74;21.42;101001.84;5113261;27;20410;-37
2022/03/27 09:53:23;;;;;;;14.25;7.57;;;;;;;21.21;23.56;100995.50;5131709;27;20070;-31
2022/03/27 09:56:14;;;;;;;15.05;7.85;;;;;;;20.95;21.89;101012.78;5131676;27;20162;-30
2022/03/27 09:58:45;;;;;;;14.38;8.05;;;;;;;21.01;22.35;100981.88;5105804;27;20118;-32
2022/03/27 10:01:22;;;;;;;14.50;8.00;;;;;;;21.84;21.73;100992.66;5112091;27;20035;-29
2022/03/27 10:04:14;;;;;;;17.42;8.32;;;;;;;21.65;21.15;100995.06;5131563;27;20037;-29
2022/03/27 10:06:41;;;;;;;13.20;7.40;;;;;;;21.38;20.70;100978.19;5131334;27;20046;-34
2022/03/27 10:09:11;;;;;;;14.05;7.30;;;;;;;21.71;22.82;100987.75;5112327;27;20035;-36
2022/03/27 10:11:40;;;;;;;12.48;6.75;;;;;;;21.48;22.38;100972.81;5112587;27;20074;-29
2022/03/27 10:14:06;;;;;;;12.75;6.93;;;;;;;21.63;22.81;100967.38;5131279;27;20026;-30
2022/03/27 10:16:47;;;;;;;14.73;7.57;;;;;;;21.65;21.03;100972.53;5112683;27;20031;-34
2022/03/27 10:19:12;;;;;;;12.13;7.80;;;;;;;22.03;20.19;100964.94;5131133;27;20027;-42
2022/03/27 10:21:42;;;;;;;18.83;8.60;;;;;;;22.63;20.77;100960.44;5131057;27;20403;-30
2022/03/27 10:24:15;;;;;;;13.70;8.13;;;;;;;22.87;19.66;100949.75;5112073;27;20034;-34
2022/03/27 10:26:42;;;;;;;13.45;7.53;;;;;;;22.50;19.54;100941.22;5112247;27;20046;-36
2022/03/27 10:29:09;;;;;;;;;;;;;;;22.39;20.01;100949.41;5112823;27;20063;-31
2022/03/27 10:31:35;;;;;;;15.80;8.48;;;;;;;22.65;19.69;100954.72;5130733;27;19911;-30
2022/03/27 10:34:05;;;;;;;12.82;7.30;;;;;;;22.47;20.12;100942.56;5130145;27;20493;-33
2022/03/27 10:36:37;;;;;;;16.10;8.93;;;;;;;22.20;19.34;100946.41;5112035;27;20035;-29
2022/03/27 10:39:16;;;;;;;15.77;8.82;;;;;;;22.24;19.80;100927.69;5111947;27;20034;-32
2022/03/27 10:42:02;;;;;;;18.08;8.98;;;;;;;22.81;19.31;100939.97;5112255;27;20543;-30
2022/03/27 10:44:40;;;;;;;15.80;8.57;;;;;;;22.99;18.76;100946.69;5130812;27;20033;-40
2022/03/27 10:47:19;;;;;;;13.55;7.90;;;;;;;23.22;20.48;100945.22;5111402;27;20115;-34
2022/03/27 10:50:00;;;;;;;15.75;7.43;;;;;;;23.90;18.48;100943.63;5111889;27;20026;-30
2022/03/27 10:52:26;;;;;;;13.10;7.82;;;;;;;23.43;19.37;100945.06;5130770;27;20031;-32
2022/03/27 10:55:14;;;;;;;13.40;8.40;;;;;;;23.69;18.37;100942.16;5111454;27;20026;-30
2022/03/27 10:57:45;;;;;;;16.63;7.60;;;;;;;23.61;17.17;100943.56;5130607;27;20035;-30
2022/03/27 11:00:13;;;;;;;13.88;8.23;;;;;;;23.70;17.52;100930.16;5128956;27;20027;-32
2022/03/27 11:02:46;;;;;;;;;;;;;;;23.94;19.31;100925.59;5130957;27;20055;-30
2022/03/27 11:05:36;;;;;;;13.40;7.05;;;;;;;23.51;17.88;100925.41;5111370;27;20718;-29
2022/03/27 11:08:17;;;;;;;12.68;7.50;;;;;;;23.86;19.78;100918.88;5111232;27;20054;-39
2022/03/27 11:10:54;;;;;;;12.13;7.15;;;;;;;24.17;18.49;100915.84;5111571;27;20490;-29
2022/03/27 11:13:29;;;;;;;11.82;6.03;;;;;;;23.86;16.02;100912.59;5129953;27;20031;-29
2022/03/27 11:16:12;;;;;;;14.00;7.13;;;;;;;24.34;16.49;100904.47;5111420;27;20067;-30
2022/03/27 11:18:46;;;;;;;14.40;7.63;;;;;;;24.43;17.15;100908.16;5130020;27;20047;-29
2022/03/27 11:21:38;;;;;;;15.48;8.13;;;;;;;24.00;16.51;100913.53;5111389;27;20045;-29
2022/03/27 11:24:03;;;;;;;14.80;8.13;;;;;;;23.50;16.42;100923.78;5122615;27;20035;-35
2022/03/27 11:26:31;;;;;;;15.40;8.48;;;;;;;23.53;18.74;100900.63;5129204;27;20483;-36